DW8956 Weather Reports


Display with metric or nautical units.
time (UTC)temp
F
wind
direction
speed
MPH
gust
MPH
rain 1hr
in
rain 24hr
in
rain mn
in
humidity
%
barometer
mb
20191023093609 52 109 4.0 8.0 0.00 0.00 0.00 95 15.8
20191023090610 51 137 4.0 9.0 0.00 0.00 0.00 96 15.7
20191023083609 51 126 5.0 9.0 0.00 0.00 0.00 94 16.1
20191023075109 52 94 2.0 6.0 0.00 0.00 0.00 92 16.8
20191023073609 51 107 2.0 5.0 0.00 0.00 0.00 94 16.8
20191023072109 49 96 1.0 3.0 0.00 0.00 0.00 97 16.7
20191023070609 48 90 2.0 3.0 0.00 0.00 0.00 97 16.9
20191023063610 47 84 1.0 2.0 0.00 0.00 0.00 96 17.3
20191023062109 46 77 0.0 0.0 0.00 0.00 0.00 97 17.4
20191023060609 46 77 0.0 2.0 0.00 0.00 0.00 96 17.0
20191023055109 46 77 2.0 4.0 0.00 0.00 0.00 96 17.0
20191023050609 46 102 0.0 1.0 0.00 0.00 0.00 96 17.7
20191023045109 46 100 0.0 1.0 0.00 0.00 0.00 96 17.8
20191023042109 46 96 2.0 3.0 0.00 0.00 0.00 96 17.9
20191023040609 47 138 1.0 2.0 0.00 0.00 0.00 96 18.3
20191023035109 47 138 0.0 1.0 0.00 0.00 0.00 96 18.9
20191023033609 47 101 0.0 1.0 0.00 0.00 0.00 96 18.8
20191023025109 47 102 0.0 1.0 0.00 0.00 0.00 96 19.2
20191023023609 47 102 0.0 1.0 0.00 0.00 0.00 96 19.2
20191023020609 47 90 0.0 1.0 0.00 0.00 0.00 97 19.9
20191023013609 47 90 1.0 2.0 0.00 0.00 0.00 97 19.9
20191023010609 47 94 1.0 2.0 0.00 0.00 0.00 97 20.6
20191023005109 46 93 0.0 1.0 0.00 0.00 0.00 97 20.8
20191023002109 46 93 0.0 1.0 0.00 0.00 0.00 97 21.2
20191023000609 46 93 0.0 1.0 0.00 0.00 0.00 97 21.2
20191022233609 46 84 0.0 1.0 0.00 0.00 0.00 96 21.4
20191022232109 46 84 0.0 1.0 0.00 0.00 0.00 96 21.5
20191022225109 46 85 1.0 3.0 0.00 0.00 0.00 97 21.8
20191022223609 46 74 0.0 1.0 0.00 0.00 0.00 96 22.0
20191022215109 47 74 0.0 1.0 0.00 0.00 0.00 96 22.4
20191022205109 47 61 0.0 1.0 0.00 0.00 0.00 96 22.5
20191022203609 47 61 1.0 2.0 0.00 0.00 0.00 96 22.4
20191022200609 48 59 1.0 2.0 0.00 0.00 0.00 96 22.5
20191022195109 48 41 1.0 2.0 0.00 0.00 0.00 96 22.5
20191022193609 48 41 1.0 2.0 0.00 0.00 0.00 96 22.5
20191022192109 48 11 1.0 2.0 0.00 0.00 0.00 96 22.6
20191022190609 48 11 1.0 2.0 0.00 0.00 0.00 96 22.8
20191022185109 48 22 1.0 3.0 0.00 0.00 0.00 96 23.0
20191022183609 48 19 1.0 2.0 0.00 0.00 0.00 96 23.0
20191022182109 47 53 0.0 2.0 0.00 0.00 0.00 95 23.1
20191022173609 48 53 1.0 2.0 0.00 0.00 0.00 93 23.6
20191022172109 48 19 1.0 3.0 0.00 0.00 0.00 92 23.4
20191022170609 49 18 0.0 1.0 0.00 0.00 0.00 91 23.4
20191022165109 49 18 0.0 1.0 0.00 0.00 0.00 90 23.4
20191022163609 50 18 1.0 3.0 0.00 0.00 0.00 89 23.3
20191022162109 50 18 1.0 2.0 0.00 0.00 0.00 88 23.2
20191022160609 51 18 2.0 4.0 0.00 0.00 0.00 87 23.2
20191022155109 52 343 2.0 5.0 0.00 0.00 0.00 85 23.3
20191022153609 52 5 3.0 6.0 0.00 0.00 0.00 84 23.2
20191022152109 53 9 1.0 3.0 0.00 0.00 0.00 85 23.4
20191022145109 54 19 1.0 4.0 0.00 0.00 0.00 82 23.6
20191022143609 54 42 4.0 6.0 0.00 0.00 0.00 81 23.6
20191022135109 55 338 1.0 3.0 0.00 0.00 0.00 78 23.9
20191022133609 55 326 0.0 2.0 0.00 0.00 0.00 77 23.8
20191022132109 55 360 2.0 4.0 0.00 0.00 0.00 79 23.7
20191022130609 55 24 4.0 7.0 0.00 0.00 0.00 80 23.8
20191022115109 55 43 0.0 1.0 0.00 0.00 0.00 81 24.4
20191022113609 54 168 1.0 3.0 0.00 0.00 0.00 83 24.7
20191022110609 53 189 1.0 2.0 0.00 0.00 0.00 87 25.1
20191022105109 51 199 1.0 3.0 0.00 0.00 0.00 91 25.0
20191022102109 49 192 3.0 5.0 0.00 0.00 0.00 93 25.3
20191022100609 48 184 2.0 6.0 0.00 0.00 0.00 95 25.1